sensor_id;sensor_type;location;lat;lon;timestamp;P1;durP1;ratioP1;P2;durP2;ratioP2
69625;SDS011;56847;51.984;5.088;2023-11-21T00:02:21;29.50;;;15.02;;
69625;SDS011;56847;51.984;5.088;2023-11-21T00:04:49;39.87;;;15.43;;
69625;SDS011;56847;51.984;5.088;2023-11-21T00:07:15;31.60;;;14.98;;
69625;SDS011;56847;51.984;5.088;2023-11-21T00:09:43;40.42;;;15.10;;
69625;SDS011;56847;51.984;5.088;2023-11-21T00:12:10;130.90;;;16.50;;
69625;SDS011;56847;51.984;5.088;2023-11-21T00:14:37;141.27;;;15.52;;
69625;SDS011;56847;51.984;5.088;2023-11-21T00:17:04;185.90;;;15.60;;
69625;SDS011;56847;51.984;5.088;2023-11-21T00:19:32;143.88;;;13.20;;
69625;SDS011;56847;51.984;5.088;2023-11-21T00:22:02;165.55;;;14.55;;
69625;SDS011;56847;51.984;5.088;2023-11-21T00:24:29;150.75;;;12.98;;
69625;SDS011;56847;51.984;5.088;2023-11-21T00:26:56;148.50;;;13.70;;
69625;SDS011;56847;51.984;5.088;2023-11-21T00:29:23;62.20;;;12.07;;
69625;SDS011;56847;51.984;5.088;2023-11-21T00:31:50;103.40;;;13.45;;
69625;SDS011;56847;51.984;5.088;2023-11-21T00:34:17;85.40;;;13.35;;
69625;SDS011;56847;51.984;5.088;2023-11-21T00:36:44;93.28;;;13.15;;
69625;SDS011;56847;51.984;5.088;2023-11-21T00:39:11;127.43;;;13.07;;
69625;SDS011;56847;51.984;5.088;2023-11-21T00:41:39;77.00;;;12.90;;
69625;SDS011;56847;51.984;5.088;2023-11-21T00:44:06;92.38;;;12.52;;
69625;SDS011;56847;51.984;5.088;2023-11-21T00:46:33;215.45;;;16.23;;
69625;SDS011;56847;51.984;5.088;2023-11-21T00:49:00;110.15;;;12.80;;
69625;SDS011;56847;51.984;5.088;2023-11-21T00:51:27;129.73;;;13.85;;
69625;SDS011;56847;51.984;5.088;2023-11-21T00:53:54;111.90;;;12.77;;
69625;SDS011;56847;51.984;5.088;2023-11-21T00:56:21;99.65;;;12.20;;
69625;SDS011;56847;51.984;5.088;2023-11-21T00:58:48;228.55;;;15.55;;
69625;SDS011;56847;51.984;5.088;2023-11-21T01:01:19;145.88;;;13.23;;
69625;SDS011;56847;51.984;5.088;2023-11-21T01:03:46;155.65;;;14.05;;
69625;SDS011;56847;51.984;5.088;2023-11-21T01:06:13;97.20;;;12.37;;
69625;SDS011;56847;51.984;5.088;2023-11-21T01:08:41;163.02;;;12.70;;
69625;SDS011;56847;51.984;5.088;2023-11-21T01:11:10;75.80;;;12.27;;
69625;SDS011;56847;51.984;5.088;2023-11-21T01:13:39;73.13;;;11.65;;
69625;SDS011;56847;51.984;5.088;2023-11-21T01:16:06;48.30;;;12.30;;
69625;SDS011;56847;51.984;5.088;2023-11-21T01:18:37;36.43;;;11.90;;
69625;SDS011;56847;51.984;5.088;2023-11-21T01:21:05;36.67;;;11.68;;
69625;SDS011;56847;51.984;5.088;2023-11-21T01:23:32;28.65;;;13.02;;
69625;SDS011;56847;51.984;5.088;2023-11-21T01:25:59;28.42;;;12.50;;
69625;SDS011;56847;51.984;5.088;2023-11-21T01:28:26;31.25;;;13.13;;
69625;SDS011;56847;51.984;5.088;2023-11-21T01:30:52;63.57;;;14.40;;
69625;SDS011;56847;51.984;5.088;2023-11-21T01:33:22;36.92;;;12.10;;
69625;SDS011;56847;51.984;5.088;2023-11-21T01:35:51;39.38;;;14.00;;
69625;SDS011;56847;51.984;5.088;2023-11-21T01:38:21;25.48;;;11.75;;
69625;SDS011;56847;51.984;5.088;2023-11-21T01:40:48;28.30;;;13.55;;
69625;SDS011;56847;51.984;5.088;2023-11-21T01:43:15;27.63;;;12.03;;
69625;SDS011;56847;51.984;5.088;2023-11-21T01:45:43;24.25;;;12.52;;
69625;SDS011;56847;51.984;5.088;2023-11-21T01:48:12;32.25;;;13.10;;
69625;SDS011;56847;51.984;5.088;2023-11-21T01:50:39;30.67;;;12.73;;
69625;SDS011;56847;51.984;5.088;2023-11-21T01:53:07;33.10;;;13.60;;
69625;SDS011;56847;51.984;5.088;2023-11-21T01:55:35;76.37;;;13.67;;
69625;SDS011;56847;51.984;5.088;2023-11-21T01:58:02;27.90;;;11.98;;
69625;SDS011;56847;51.984;5.088;2023-11-21T02:00:29;21.95;;;12.63;;
69625;SDS011;56847;51.984;5.088;2023-11-21T02:02:57;31.45;;;13.55;;
69625;SDS011;56847;51.984;5.088;2023-11-21T02:05:26;24.27;;;12.38;;
69625;SDS011;56847;51.984;5.088;2023-11-21T02:07:53;27.70;;;11.57;;
69625;SDS011;56847;51.984;5.088;2023-11-21T02:10:19;26.83;;;13.07;;
69625;SDS011;56847;51.984;5.088;2023-11-21T02:12:51;28.85;;;13.88;;
69625;SDS011;56847;51.984;5.088;2023-11-21T02:15:18;23.92;;;12.55;;
69625;SDS011;56847;51.984;5.088;2023-11-21T02:17:53;27.67;;;13.20;;
69625;SDS011;56847;51.984;5.088;2023-11-21T02:20:21;31.13;;;13.00;;
69625;SDS011;56847;51.984;5.088;2023-11-21T02:22:52;23.20;;;11.85;;
69625;SDS011;56847;51.984;5.088;2023-11-21T02:25:27;29.48;;;12.80;;
69625;SDS011;56847;51.984;5.088;2023-11-21T02:27:56;31.50;;;12.10;;
69625;SDS011;56847;51.984;5.088;2023-11-21T02:30:25;30.05;;;12.98;;
69625;SDS011;56847;51.984;5.088;2023-11-21T02:32:54;30.07;;;12.27;;
69625;SDS011;56847;51.984;5.088;2023-11-21T02:35:24;25.77;;;12.68;;
69625;SDS011;56847;51.984;5.088;2023-11-21T02:37:54;30.90;;;13.75;;
69625;SDS011;56847;51.984;5.088;2023-11-21T02:40:21;36.45;;;13.23;;
69625;SDS011;56847;51.984;5.088;2023-11-21T02:42:51;31.83;;;12.93;;
69625;SDS011;56847;51.984;5.088;2023-11-21T02:45:21;32.07;;;13.27;;
69625;SDS011;56847;51.984;5.088;2023-11-21T02:47:50;32.90;;;13.20;;
69625;SDS011;56847;51.984;5.088;2023-11-21T02:50:17;29.38;;;13.35;;
69625;SDS011;56847;51.984;5.088;2023-11-21T02:52:45;30.58;;;13.48;;
69625;SDS011;56847;51.984;5.088;2023-11-21T02:55:13;39.70;;;13.77;;
69625;SDS011;56847;51.984;5.088;2023-11-21T02:57:40;36.77;;;12.50;;
69625;SDS011;56847;51.984;5.088;2023-11-21T03:00:07;41.25;;;13.60;;
69625;SDS011;56847;51.984;5.088;2023-11-21T03:02:36;39.15;;;13.98;;
69625;SDS011;56847;51.984;5.088;2023-11-21T03:05:15;32.28;;;14.85;;
69625;SDS011;56847;51.984;5.088;2023-11-21T03:07:44;34.17;;;14.13;;
69625;SDS011;56847;51.984;5.088;2023-11-21T03:10:11;32.77;;;13.60;;
69625;SDS011;56847;51.984;5.088;2023-11-21T03:12:40;33.13;;;13.10;;
69625;SDS011;56847;51.984;5.088;2023-11-21T03:15:09;37.60;;;13.77;;
69625;SDS011;56847;51.984;5.088;2023-11-21T03:17:36;31.88;;;13.32;;
69625;SDS011;56847;51.984;5.088;2023-11-21T03:20:04;37.60;;;13.57;;
69625;SDS011;56847;51.984;5.088;2023-11-21T03:22:32;44.60;;;14.30;;
69625;SDS011;56847;51.984;5.088;2023-11-21T03:25:00;46.83;;;15.43;;
69625;SDS011;56847;51.984;5.088;2023-11-21T03:27:34;39.38;;;14.05;;
69625;SDS011;56847;51.984;5.088;2023-11-21T03:30:01;36.15;;;14.07;;
69625;SDS011;56847;51.984;5.088;2023-11-21T03:32:30;45.13;;;15.15;;
69625;SDS011;56847;51.984;5.088;2023-11-21T03:34:59;47.80;;;15.67;;
69625;SDS011;56847;51.984;5.088;2023-11-21T03:37:28;42.97;;;14.48;;
69625;SDS011;56847;51.984;5.088;2023-11-21T03:39:55;41.80;;;14.77;;
69625;SDS011;56847;51.984;5.088;2023-11-21T03:42:23;36.90;;;13.77;;
69625;SDS011;56847;51.984;5.088;2023-11-21T03:44:53;42.08;;;14.82;;
69625;SDS011;56847;51.984;5.088;2023-11-21T03:47:20;49.47;;;14.73;;
69625;SDS011;56847;51.984;5.088;2023-11-21T03:49:47;38.88;;;13.43;;
69625;SDS011;56847;51.984;5.088;2023-11-21T03:52:15;46.00;;;14.85;;
69625;SDS011;56847;51.984;5.088;2023-11-21T03:54:42;40.05;;;14.38;;
69625;SDS011;56847;51.984;5.088;2023-11-21T03:57:10;42.20;;;15.07;;
69625;SDS011;56847;51.984;5.088;2023-11-21T03:59:41;37.00;;;13.33;;
69625;SDS011;56847;51.984;5.088;2023-11-21T04:02:09;37.03;;;14.05;;
69625;SDS011;56847;51.984;5.088;2023-11-21T04:04:36;39.20;;;15.30;;
69625;SDS011;56847;51.984;5.088;2023-11-21T04:07:03;42.38;;;15.07;;
69625;SDS011;56847;51.984;5.088;2023-11-21T04:09:31;41.95;;;15.50;;
69625;SDS011;56847;51.984;5.088;2023-11-21T04:11:58;37.63;;;13.83;;
69625;SDS011;56847;51.984;5.088;2023-11-21T04:14:25;46.55;;;14.90;;
69625;SDS011;56847;51.984;5.088;2023-11-21T04:16:52;40.97;;;15.82;;
69625;SDS011;56847;51.984;5.088;2023-11-21T04:19:20;41.28;;;14.52;;
69625;SDS011;56847;51.984;5.088;2023-11-21T04:21:47;38.85;;;14.30;;
69625;SDS011;56847;51.984;5.088;2023-11-21T04:24:14;44.73;;;14.20;;
69625;SDS011;56847;51.984;5.088;2023-11-21T04:26:41;41.20;;;15.00;;
69625;SDS011;56847;51.984;5.088;2023-11-21T04:29:08;42.03;;;15.70;;
69625;SDS011;56847;51.984;5.088;2023-11-21T04:31:35;38.88;;;14.45;;
69625;SDS011;56847;51.984;5.088;2023-11-21T04:34:02;51.85;;;15.90;;
69625;SDS011;56847;51.984;5.088;2023-11-21T04:36:30;37.00;;;14.80;;
69625;SDS011;56847;51.984;5.088;2023-11-21T04:38:57;41.35;;;14.98;;
69625;SDS011;56847;51.984;5.088;2023-11-21T04:41:24;40.17;;;14.45;;
69625;SDS011;56847;51.984;5.088;2023-11-21T04:43:51;54.35;;;14.75;;
69625;SDS011;56847;51.984;5.088;2023-11-21T04:46:18;41.22;;;14.55;;
69625;SDS011;56847;51.984;5.088;2023-11-21T04:48:45;41.70;;;14.30;;
69625;SDS011;56847;51.984;5.088;2023-11-21T04:51:12;41.33;;;14.38;;
69625;SDS011;56847;51.984;5.088;2023-11-21T04:53:39;38.40;;;14.90;;
69625;SDS011;56847;51.984;5.088;2023-11-21T04:56:06;56.22;;;15.98;;
69625;SDS011;56847;51.984;5.088;2023-11-21T04:58:33;48.42;;;15.98;;
69625;SDS011;56847;51.984;5.088;2023-11-21T05:01:00;39.23;;;13.67;;
69625;SDS011;56847;51.984;5.088;2023-11-21T05:03:27;48.72;;;14.57;;
69625;SDS011;56847;51.984;5.088;2023-11-21T05:05:56;59.03;;;16.10;;
69625;SDS011;56847;51.984;5.088;2023-11-21T05:08:23;40.53;;;13.68;;
69625;SDS011;56847;51.984;5.088;2023-11-21T05:10:50;51.20;;;15.25;;
69625;SDS011;56847;51.984;5.088;2023-11-21T05:13:18;39.47;;;12.77;;
69625;SDS011;56847;51.984;5.088;2023-11-21T05:15:46;47.47;;;15.00;;
69625;SDS011;56847;51.984;5.088;2023-11-21T05:18:13;42.00;;;14.57;;
69625;SDS011;56847;51.984;5.088;2023-11-21T05:20:40;53.53;;;14.02;;
69625;SDS011;56847;51.984;5.088;2023-11-21T05:23:07;42.53;;;13.98;;
69625;SDS011;56847;51.984;5.088;2023-11-21T05:25:34;53.07;;;14.17;;
69625;SDS011;56847;51.984;5.088;2023-11-21T05:28:06;52.63;;;14.02;;
69625;SDS011;56847;51.984;5.088;2023-11-21T05:30:33;44.10;;;14.68;;
69625;SDS011;56847;51.984;5.088;2023-11-21T05:33:00;43.85;;;14.30;;
69625;SDS011;56847;51.984;5.088;2023-11-21T05:35:27;39.20;;;13.60;;
69625;SDS011;56847;51.984;5.088;2023-11-21T05:37:54;53.87;;;13.60;;
69625;SDS011;56847;51.984;5.088;2023-11-21T05:40:21;58.50;;;14.77;;
69625;SDS011;56847;51.984;5.088;2023-11-21T05:42:49;55.22;;;15.38;;
69625;SDS011;56847;51.984;5.088;2023-11-21T05:45:18;43.95;;;14.30;;
69625;SDS011;56847;51.984;5.088;2023-11-21T05:47:46;46.20;;;14.82;;
69625;SDS011;56847;51.984;5.088;2023-11-21T05:50:14;57.87;;;14.57;;
69625;SDS011;56847;51.984;5.088;2023-11-21T05:52:43;46.47;;;14.43;;
69625;SDS011;56847;51.984;5.088;2023-11-21T05:55:12;52.90;;;15.98;;
69625;SDS011;56847;51.984;5.088;2023-11-21T05:57:43;56.92;;;14.23;;
69625;SDS011;56847;51.984;5.088;2023-11-21T06:00:11;52.50;;;15.73;;
69625;SDS011;56847;51.984;5.088;2023-11-21T06:02:48;42.80;;;13.40;;
69625;SDS011;56847;51.984;5.088;2023-11-21T06:05:22;50.47;;;15.02;;
69625;SDS011;56847;51.984;5.088;2023-11-21T06:07:55;54.28;;;15.05;;
69625;SDS011;56847;51.984;5.088;2023-11-21T06:10:25;44.55;;;15.73;;
69625;SDS011;56847;51.984;5.088;2023-11-21T06:12:52;44.38;;;15.85;;
69625;SDS011;56847;51.984;5.088;2023-11-21T06:15:20;48.43;;;15.67;;
69625;SDS011;56847;51.984;5.088;2023-11-21T06:17:48;56.42;;;16.38;;
69625;SDS011;56847;51.984;5.088;2023-11-21T06:20:19;45.72;;;15.60;;
69625;SDS011;56847;51.984;5.088;2023-11-21T06:22:47;46.40;;;15.63;;
69625;SDS011;56847;51.984;5.088;2023-11-21T06:25:15;53.03;;;14.43;;
69625;SDS011;56847;51.984;5.088;2023-11-21T06:27:44;57.13;;;15.57;;
69625;SDS011;56847;51.984;5.088;2023-11-21T06:30:12;69.00;;;17.27;;
69625;SDS011;56847;51.984;5.088;2023-11-21T06:32:42;71.43;;;18.00;;
69625;SDS011;56847;51.984;5.088;2023-11-21T06:35:13;56.75;;;15.85;;
69625;SDS011;56847;51.984;5.088;2023-11-21T06:37:43;68.85;;;18.33;;
69625;SDS011;56847;51.984;5.088;2023-11-21T06:40:16;71.27;;;16.07;;
69625;SDS011;56847;51.984;5.088;2023-11-21T06:42:45;67.95;;;18.05;;
69625;SDS011;56847;51.984;5.088;2023-11-21T06:45:13;65.65;;;18.40;;
69625;SDS011;56847;51.984;5.088;2023-11-21T06:47:41;68.60;;;16.95;;
69625;SDS011;56847;51.984;5.088;2023-11-21T06:50:08;71.93;;;17.67;;
69625;SDS011;56847;51.984;5.088;2023-11-21T06:52:35;73.13;;;18.53;;
69625;SDS011;56847;51.984;5.088;2023-11-21T06:55:02;63.35;;;17.85;;
69625;SDS011;56847;51.984;5.088;2023-11-21T06:57:30;66.75;;;18.17;;
69625;SDS011;56847;51.984;5.088;2023-11-21T06:59:57;68.05;;;17.90;;
69625;SDS011;56847;51.984;5.088;2023-11-21T07:02:24;69.57;;;19.35;;
69625;SDS011;56847;51.984;5.088;2023-11-21T07:04:51;48.17;;;15.53;;
69625;SDS011;56847;51.984;5.088;2023-11-21T07:07:18;43.28;;;15.32;;
69625;SDS011;56847;51.984;5.088;2023-11-21T07:09:46;51.80;;;17.25;;
69625;SDS011;56847;51.984;5.088;2023-11-21T07:12:14;43.83;;;15.10;;
69625;SDS011;56847;51.984;5.088;2023-11-21T07:14:41;35.97;;;14.13;;
69625;SDS011;56847;51.984;5.088;2023-11-21T07:17:11;48.63;;;15.73;;
69625;SDS011;56847;51.984;5.088;2023-11-21T07:19:38;43.03;;;15.45;;
69625;SDS011;56847;51.984;5.088;2023-11-21T07:22:05;50.67;;;16.45;;
69625;SDS011;56847;51.984;5.088;2023-11-21T07:24:32;51.25;;;15.52;;
69625;SDS011;56847;51.984;5.088;2023-11-21T07:27:00;36.58;;;14.00;;
69625;SDS011;56847;51.984;5.088;2023-11-21T07:29:27;36.80;;;13.07;;
69625;SDS011;56847;51.984;5.088;2023-11-21T07:31:56;44.03;;;14.07;;
69625;SDS011;56847;51.984;5.088;2023-11-21T07:34:23;32.80;;;13.57;;
69625;SDS011;56847;51.984;5.088;2023-11-21T07:36:50;31.98;;;13.30;;
69625;SDS011;56847;51.984;5.088;2023-11-21T07:39:17;39.78;;;13.90;;
69625;SDS011;56847;51.984;5.088;2023-11-21T07:41:44;30.53;;;11.90;;
69625;SDS011;56847;51.984;5.088;2023-11-21T07:44:15;29.08;;;10.93;;
69625;SDS011;56847;51.984;5.088;2023-11-21T07:46:47;32.00;;;11.15;;
69625;SDS011;56847;51.984;5.088;2023-11-21T07:49:16;30.88;;;12.07;;
69625;SDS011;56847;51.984;5.088;2023-11-21T07:51:47;34.53;;;12.43;;
69625;SDS011;56847;51.984;5.088;2023-11-21T07:54:14;41.73;;;12.63;;
69625;SDS011;56847;51.984;5.088;2023-11-21T07:56:42;30.45;;;11.95;;
69625;SDS011;56847;51.984;5.088;2023-11-21T07:59:09;37.13;;;11.85;;
69625;SDS011;56847;51.984;5.088;2023-11-21T08:01:36;28.90;;;11.13;;
69625;SDS011;56847;51.984;5.088;2023-11-21T08:04:03;27.42;;;11.70;;
69625;SDS011;56847;51.984;5.088;2023-11-21T08:06:31;32.10;;;10.83;;
69625;SDS011;56847;51.984;5.088;2023-11-21T08:08:59;24.30;;;10.45;;
69625;SDS011;56847;51.984;5.088;2023-11-21T08:11:26;26.13;;;10.35;;
69625;SDS011;56847;51.984;5.088;2023-11-21T08:13:55;25.45;;;10.25;;
69625;SDS011;56847;51.984;5.088;2023-11-21T08:16:23;25.40;;;10.75;;
69625;SDS011;56847;51.984;5.088;2023-11-21T08:18:50;29.80;;;10.60;;
69625;SDS011;56847;51.984;5.088;2023-11-21T08:21:17;34.97;;;9.98;;
69625;SDS011;56847;51.984;5.088;2023-11-21T08:23:45;25.80;;;11.10;;
69625;SDS011;56847;51.984;5.088;2023-11-21T08:26:15;28.05;;;9.85;;
69625;SDS011;56847;51.984;5.088;2023-11-21T08:28:42;26.83;;;10.30;;
69625;SDS011;56847;51.984;5.088;2023-11-21T08:31:09;28.23;;;9.57;;
69625;SDS011;56847;51.984;5.088;2023-11-21T08:33:39;28.40;;;9.15;;
69625;SDS011;56847;51.984;5.088;2023-11-21T08:36:07;21.52;;;9.98;;
69625;SDS011;56847;51.984;5.088;2023-11-21T08:38:35;21.25;;;9.57;;
69625;SDS011;56847;51.984;5.088;2023-11-21T08:41:05;25.63;;;9.95;;
69625;SDS011;56847;51.984;5.088;2023-11-21T08:43:37;17.87;;;7.70;;
69625;SDS011;56847;51.984;5.088;2023-11-21T08:46:07;19.48;;;8.25;;
69625;SDS011;56847;51.984;5.088;2023-11-21T08:48:36;19.35;;;7.45;;
69625;SDS011;56847;51.984;5.088;2023-11-21T08:51:04;19.73;;;7.35;;
69625;SDS011;56847;51.984;5.088;2023-11-21T08:53:31;17.23;;;7.57;;
69625;SDS011;56847;51.984;5.088;2023-11-21T08:55:59;17.23;;;7.00;;
69625;SDS011;56847;51.984;5.088;2023-11-21T08:58:26;16.27;;;6.63;;
69625;SDS011;56847;51.984;5.088;2023-11-21T09:00:54;16.30;;;6.85;;
69625;SDS011;56847;51.984;5.088;2023-11-21T09:03:20;20.20;;;7.05;;
69625;SDS011;56847;51.984;5.088;2023-11-21T09:05:48;11.80;;;6.93;;
69625;SDS011;56847;51.984;5.088;2023-11-21T09:08:15;19.10;;;6.60;;
69625;SDS011;56847;51.984;5.088;2023-11-21T09:10:41;18.13;;;6.28;;
69625;SDS011;56847;51.984;5.088;2023-11-21T09:13:09;17.75;;;6.85;;
69625;SDS011;56847;51.984;5.088;2023-11-21T09:15:36;16.35;;;7.10;;
69625;SDS011;56847;51.984;5.088;2023-11-21T09:18:03;16.88;;;7.30;;
69625;SDS011;56847;51.984;5.088;2023-11-21T09:20:31;14.60;;;6.47;;
69625;SDS011;56847;51.984;5.088;2023-11-21T09:22:58;16.73;;;7.55;;
69625;SDS011;56847;51.984;5.088;2023-11-21T09:25:25;19.45;;;8.43;;
69625;SDS011;56847;51.984;5.088;2023-11-21T09:27:54;19.60;;;7.95;;
69625;SDS011;56847;51.984;5.088;2023-11-21T09:30:23;13.50;;;7.45;;
69625;SDS011;56847;51.984;5.088;2023-11-21T09:32:51;16.37;;;7.83;;
69625;SDS011;56847;51.984;5.088;2023-11-21T09:35:18;15.25;;;7.70;;
69625;SDS011;56847;51.984;5.088;2023-11-21T09:37:45;14.20;;;7.85;;
69625;SDS011;56847;51.984;5.088;2023-11-21T09:40:15;14.38;;;7.38;;
69625;SDS011;56847;51.984;5.088;2023-11-21T09:45:23;15.70;;;8.13;;
69625;SDS011;56847;51.984;5.088;2023-11-21T09:47:55;16.35;;;7.35;;
69625;SDS011;56847;51.984;5.088;2023-11-21T09:50:23;13.43;;;7.72;;
69625;SDS011;56847;51.984;5.088;2023-11-21T09:55:45;12.15;;;8.13;;
69625;SDS011;56847;51.984;5.088;2023-11-21T09:58:13;18.17;;;7.90;;
69625;SDS011;56847;51.984;5.088;2023-11-21T10:00:41;16.45;;;8.18;;
69625;SDS011;56847;51.984;5.088;2023-11-21T10:03:13;20.50;;;8.23;;
69625;SDS011;56847;51.984;5.088;2023-11-21T10:05:44;15.68;;;8.43;;
69625;SDS011;56847;51.984;5.088;2023-11-21T10:08:14;20.17;;;9.32;;
69625;SDS011;56847;51.984;5.088;2023-11-21T10:10:45;15.00;;;7.40;;
69625;SDS011;56847;51.984;5.088;2023-11-21T10:13:14;13.15;;;8.00;;
69625;SDS011;56847;51.984;5.088;2023-11-21T10:15:49;15.70;;;9.10;;
69625;SDS011;56847;51.984;5.088;2023-11-21T10:18:18;13.65;;;8.10;;
69625;SDS011;56847;51.984;5.088;2023-11-21T10:20:45;17.15;;;9.20;;
69625;SDS011;56847;51.984;5.088;2023-11-21T10:23:20;12.20;;;7.40;;
69625;SDS011;56847;51.984;5.088;2023-11-21T10:25:50;16.83;;;8.93;;
69625;SDS011;56847;51.984;5.088;2023-11-21T10:28:18;14.38;;;8.57;;
69625;SDS011;56847;51.984;5.088;2023-11-21T10:30:47;14.00;;;8.48;;
69625;SDS011;56847;51.984;5.088;2023-11-21T10:33:14;15.40;;;8.73;;
69625;SDS011;56847;51.984;5.088;2023-11-21T10:38:08;17.67;;;9.55;;
69625;SDS011;56847;51.984;5.088;2023-11-21T10:40:40;15.95;;;9.07;;
69625;SDS011;56847;51.984;5.088;2023-11-21T10:43:08;14.25;;;9.05;;
69625;SDS011;56847;51.984;5.088;2023-11-21T10:45:39;13.85;;;8.13;;
69625;SDS011;56847;51.984;5.088;2023-11-21T10:48:08;15.43;;;7.17;;
69625;SDS011;56847;51.984;5.088;2023-11-21T10:50:45;14.80;;;7.60;;
69625;SDS011;56847;51.984;5.088;2023-11-21T10:53:13;13.25;;;7.10;;
69625;SDS011;56847;51.984;5.088;2023-11-21T10:55:40;9.43;;;6.63;;
69625;SDS011;56847;51.984;5.088;2023-11-21T10:58:08;11.07;;;6.68;;
69625;SDS011;56847;51.984;5.088;2023-11-21T11:00:37;9.70;;;6.30;;
69625;SDS011;56847;51.984;5.088;2023-11-21T11:03:06;10.32;;;5.78;;
69625;SDS011;56847;51.984;5.088;2023-11-21T11:05:42;10.77;;;7.00;;
69625;SDS011;56847;51.984;5.088;2023-11-21T11:08:19;12.52;;;5.93;;
69625;SDS011;56847;51.984;5.088;2023-11-21T11:10:53;12.55;;;7.10;;
69625;SDS011;56847;51.984;5.088;2023-11-21T11:13:20;11.77;;;6.37;;
69625;SDS011;56847;51.984;5.088;2023-11-21T11:15:48;14.50;;;6.03;;
69625;SDS011;56847;51.984;5.088;2023-11-21T11:18:15;9.32;;;6.35;;
69625;SDS011;56847;51.984;5.088;2023-11-21T11:20:43;9.18;;;5.82;;
69625;SDS011;56847;51.984;5.088;2023-11-21T11:29:08;10.50;;;6.25;;
69625;SDS011;56847;51.984;5.088;2023-11-21T11:35:08;10.70;;;6.47;;
69625;SDS011;56847;51.984;5.088;2023-11-21T11:37:43;11.63;;;6.90;;
69625;SDS011;56847;51.984;5.088;2023-11-21T11:40:11;12.70;;;6.67;;
69625;SDS011;56847;51.984;5.088;2023-11-21T11:42:38;15.60;;;8.35;;
69625;SDS011;56847;51.984;5.088;2023-11-21T11:45:19;14.93;;;7.43;;
69625;SDS011;56847;51.984;5.088;2023-11-21T11:47:47;19.35;;;7.30;;
69625;SDS011;56847;51.984;5.088;2023-11-21T11:50:14;15.18;;;8.98;;
69625;SDS011;56847;51.984;5.088;2023-11-21T11:52:45;16.63;;;7.73;;
69625;SDS011;56847;51.984;5.088;2023-11-21T11:55:14;16.40;;;8.25;;
69625;SDS011;56847;51.984;5.088;2023-11-21T11:57:45;16.05;;;8.95;;
69625;SDS011;56847;51.984;5.088;2023-11-21T12:00:18;15.77;;;8.10;;
69625;SDS011;56847;51.984;5.088;2023-11-21T12:02:52;19.00;;;8.48;;
69625;SDS011;56847;51.984;5.088;2023-11-21T12:05:21;15.83;;;8.20;;
69625;SDS011;56847;51.984;5.088;2023-11-21T12:07:50;14.55;;;8.73;;
69625;SDS011;56847;51.984;5.088;2023-11-21T12:10:22;17.63;;;9.07;;
69625;SDS011;56847;51.984;5.088;2023-11-21T12:12:54;14.20;;;8.73;;
69625;SDS011;56847;51.984;5.088;2023-11-21T12:15:26;19.20;;;9.52;;
69625;SDS011;56847;51.984;5.088;2023-11-21T12:17:55;18.07;;;9.57;;
69625;SDS011;56847;51.984;5.088;2023-11-21T12:20:23;20.48;;;9.77;;
69625;SDS011;56847;51.984;5.088;2023-11-21T12:22:51;18.48;;;11.02;;
69625;SDS011;56847;51.984;5.088;2023-11-21T12:25:20;18.80;;;10.40;;
69625;SDS011;56847;51.984;5.088;2023-11-21T12:27:49;16.27;;;10.20;;
69625;SDS011;56847;51.984;5.088;2023-11-21T12:30:23;15.30;;;9.03;;
69625;SDS011;56847;51.984;5.088;2023-11-21T12:32:54;14.68;;;9.10;;
69625;SDS011;56847;51.984;5.088;2023-11-21T12:35:23;18.25;;;10.43;;
69625;SDS011;56847;51.984;5.088;2023-11-21T12:37:51;19.38;;;10.98;;
69625;SDS011;56847;51.984;5.088;2023-11-21T12:40:20;20.60;;;10.95;;
69625;SDS011;56847;51.984;5.088;2023-11-21T12:42:53;22.50;;;10.93;;
69625;SDS011;56847;51.984;5.088;2023-11-21T12:45:21;20.90;;;11.43;;
69625;SDS011;56847;51.984;5.088;2023-11-21T12:47:54;23.60;;;11.75;;
69625;SDS011;56847;51.984;5.088;2023-11-21T12:50:26;18.10;;;10.57;;
69625;SDS011;56847;51.984;5.088;2023-11-21T12:53:13;20.52;;;11.15;;
69625;SDS011;56847;51.984;5.088;2023-11-21T12:55:43;27.87;;;12.17;;
69625;SDS011;56847;51.984;5.088;2023-11-21T12:58:16;22.35;;;11.38;;
69625;SDS011;56847;51.984;5.088;2023-11-21T13:00:46;22.42;;;11.65;;
69625;SDS011;56847;51.984;5.088;2023-11-21T13:03:14;22.67;;;11.57;;
69625;SDS011;56847;51.984;5.088;2023-11-21T13:05:52;24.83;;;12.55;;
69625;SDS011;56847;51.984;5.088;2023-11-21T13:08:24;25.13;;;13.07;;
69625;SDS011;56847;51.984;5.088;2023-11-21T13:10:52;25.00;;;12.65;;
69625;SDS011;56847;51.984;5.088;2023-11-21T13:13:22;28.13;;;13.90;;
69625;SDS011;56847;51.984;5.088;2023-11-21T13:15:52;29.15;;;12.48;;
69625;SDS011;56847;51.984;5.088;2023-11-21T13:18:23;26.27;;;12.30;;
69625;SDS011;56847;51.984;5.088;2023-11-21T13:20:57;20.50;;;11.43;;
69625;SDS011;56847;51.984;5.088;2023-11-21T13:23:26;19.25;;;11.68;;
69625;SDS011;56847;51.984;5.088;2023-11-21T13:25:53;20.95;;;10.75;;
69625;SDS011;56847;51.984;5.088;2023-11-21T13:28:33;15.43;;;10.43;;
69625;SDS011;56847;51.984;5.088;2023-11-21T13:31:02;15.95;;;9.73;;
69625;SDS011;56847;51.984;5.088;2023-11-21T13:33:37;17.67;;;9.87;;
69625;SDS011;56847;51.984;5.088;2023-11-21T13:36:07;16.83;;;10.00;;
69625;SDS011;56847;51.984;5.088;2023-11-21T13:38:37;17.65;;;9.60;;
69625;SDS011;56847;51.984;5.088;2023-11-21T13:41:09;13.65;;;9.02;;
69625;SDS011;56847;51.984;5.088;2023-11-21T13:43:39;12.43;;;8.25;;
69625;SDS011;56847;51.984;5.088;2023-11-21T13:46:06;11.87;;;7.80;;
69625;SDS011;56847;51.984;5.088;2023-11-21T13:48:43;14.98;;;8.05;;
69625;SDS011;56847;51.984;5.088;2023-11-21T13:51:17;18.17;;;8.85;;
69625;SDS011;56847;51.984;5.088;2023-11-21T13:53:45;9.90;;;7.47;;
69625;SDS011;56847;51.984;5.088;2023-11-21T13:56:16;16.20;;;7.32;;
69625;SDS011;56847;51.984;5.088;2023-11-21T13:58:47;12.30;;;6.90;;
69625;SDS011;56847;51.984;5.088;2023-11-21T14:01:27;9.50;;;6.35;;
69625;SDS011;56847;51.984;5.088;2023-11-21T14:03:58;10.13;;;6.50;;
69625;SDS011;56847;51.984;5.088;2023-11-21T14:06:51;18.88;;;8.77;;
69625;SDS011;56847;51.984;5.088;2023-11-21T14:09:22;12.88;;;8.73;;
69625;SDS011;56847;51.984;5.088;2023-11-21T14:11:53;12.53;;;6.50;;
69625;SDS011;56847;51.984;5.088;2023-11-21T14:14:27;8.52;;;6.15;;
69625;SDS011;56847;51.984;5.088;2023-11-21T14:16:54;6.55;;;4.88;;
69625;SDS011;56847;51.984;5.088;2023-11-21T14:19:25;6.75;;;3.88;;
69625;SDS011;56847;51.984;5.088;2023-11-21T14:21:59;4.63;;;3.67;;
69625;SDS011;56847;51.984;5.088;2023-11-21T14:24:27;6.90;;;4.20;;
69625;SDS011;56847;51.984;5.088;2023-11-21T14:26:55;5.32;;;3.40;;
69625;SDS011;56847;51.984;5.088;2023-11-21T14:29:22;6.65;;;4.70;;
69625;SDS011;56847;51.984;5.088;2023-11-21T14:31:50;9.68;;;4.72;;
69625;SDS011;56847;51.984;5.088;2023-11-21T14:34:19;6.30;;;4.88;;
69625;SDS011;56847;51.984;5.088;2023-11-21T14:36:52;6.23;;;4.17;;
69625;SDS011;56847;51.984;5.088;2023-11-21T14:39:18;5.72;;;4.47;;
69625;SDS011;56847;51.984;5.088;2023-11-21T14:41:55;7.13;;;5.13;;
69625;SDS011;56847;51.984;5.088;2023-11-21T14:44:25;7.07;;;5.30;;
69625;SDS011;56847;51.984;5.088;2023-11-21T14:46:55;10.20;;;6.55;;
69625;SDS011;56847;51.984;5.088;2023-11-21T14:49:25;7.17;;;5.73;;
69625;SDS011;56847;51.984;5.088;2023-11-21T14:51:54;8.55;;;6.45;;
69625;SDS011;56847;51.984;5.088;2023-11-21T14:54:30;13.45;;;7.72;;